createdAt,value
2022-10-02T00:02:45.734Z,15.63
2022-10-02T00:05:40.857Z,11.40
2022-10-02T00:08:37.765Z,8.93
2022-10-02T00:11:30.914Z,12.25
2022-10-02T00:14:22.785Z,11.95
2022-10-02T00:17:13.782Z,10.35
2022-10-02T00:19:57.261Z,12.63
2022-10-02T00:22:43.732Z,10.98
2022-10-02T00:25:39.993Z,9.10
2022-10-02T00:28:41.705Z,8.55
2022-10-02T00:31:44.852Z,9.35
2022-10-02T00:34:45.701Z,6.68
2022-10-02T00:37:53.741Z,8.95
2022-10-02T00:40:53.704Z,5.57
2022-10-02T00:44:04.748Z,7.30
2022-10-02T00:46:56.837Z,4.85
2022-10-02T00:49:43.696Z,5.03
2022-10-02T00:52:58.728Z,7.25
2022-10-02T00:55:59.734Z,4.20
2022-10-02T00:59:04.858Z,6.80
2022-10-02T01:02:09.749Z,4.68
2022-10-02T01:04:56.700Z,6.68
2022-10-02T01:07:41.534Z,5.90
2022-10-02T01:10:28.702Z,3.25
2022-10-02T01:13:09.552Z,3.17
2022-10-02T01:16:09.712Z,3.67
2022-10-02T01:18:51.217Z,3.35
2022-10-02T01:21:46.670Z,2.55
2022-10-02T01:24:43.461Z,3.70
2022-10-02T01:27:30.666Z,7.97
2022-10-02T01:30:15.818Z,4.78
2022-10-02T01:33:06.620Z,2.63
2022-10-02T01:35:47.994Z,4.50
2022-10-02T01:38:36.617Z,2.78
2022-10-02T01:41:23.620Z,3.10
2022-10-02T01:44:15.749Z,2.08
2022-10-02T01:47:09.904Z,2.20
2022-10-02T01:50:20.615Z,2.88
2022-10-02T01:53:29.635Z,4.28
2022-10-02T01:56:24.740Z,5.82
2022-10-02T01:59:27.623Z,3.80
2022-10-02T02:02:25.799Z,3.45
2022-10-02T02:05:18.618Z,2.65
2022-10-02T02:08:15.844Z,3.65
2022-10-02T02:11:12.382Z,7.40
2022-10-02T02:14:13.754Z,2.90
2022-10-02T02:17:15.707Z,3.95
2022-10-02T02:20:10.606Z,1.92
2022-10-02T02:22:54.567Z,3.78
2022-10-02T02:25:45.615Z,3.33
2022-10-02T02:28:42.587Z,3.03
2022-10-02T02:31:36.635Z,3.15
2022-10-02T02:34:28.622Z,1.83
2022-10-02T02:37:16.565Z,2.25
2022-10-02T02:40:09.542Z,3.42
2022-10-02T02:43:04.571Z,3.42
2022-10-02T02:45:52.749Z,2.67
2022-10-02T02:48:52.567Z,3.35
2022-10-02T02:51:49.599Z,3.67
2022-10-02T02:54:36.772Z,3.72
2022-10-02T02:57:26.551Z,4.30
2022-10-02T03:00:08.087Z,3.53
2022-10-02T03:03:02.550Z,3.45
2022-10-02T03:05:58.575Z,4.82
2022-10-02T03:26:31.166Z,6.60
2022-10-02T03:29:25.477Z,6.75
2022-10-02T03:32:13.182Z,8.40
2022-10-02T03:35:01.193Z,6.78
2022-10-02T03:37:48.174Z,5.40
2022-10-02T03:40:35.181Z,5.85
2022-10-02T03:43:24.268Z,5.38
2022-10-02T03:46:11.236Z,4.95
2022-10-02T03:48:51.265Z,9.38
2022-10-02T03:51:38.201Z,16.98
2022-10-02T03:54:34.177Z,23.17
2022-10-02T03:57:26.294Z,7.47
2022-10-02T04:00:20.159Z,5.97
2022-10-02T04:03:05.521Z,4.20
2022-10-02T04:05:56.173Z,10.73
2022-10-02T04:08:50.166Z,7.70
2022-10-02T04:11:50.275Z,5.68
2022-10-02T04:14:56.186Z,9.18
2022-10-02T04:17:50.232Z,9.32
2022-10-02T04:20:50.149Z,9.07
2022-10-02T04:23:33.267Z,5.90
2022-10-02T04:26:35.412Z,7.13
2022-10-02T04:29:47.157Z,4.72
2022-10-02T04:32:31.169Z,7.30
2022-10-02T04:35:37.125Z,7.85
2022-10-02T04:38:47.482Z,6.50
2022-10-02T04:41:46.150Z,4.68
2022-10-02T04:44:59.129Z,3.70
2022-10-02T04:47:58.298Z,5.93
2022-10-02T04:51:04.115Z,3.75
2022-10-02T04:53:52.226Z,5.20
2022-10-02T04:57:08.103Z,6.18
2022-10-02T04:59:54.229Z,3.63
2022-10-02T05:02:48.131Z,4.10
2022-10-02T05:05:57.183Z,6.28
2022-10-02T05:08:58.117Z,5.95
2022-10-02T05:11:41.148Z,6.50
2022-10-02T05:15:12.110Z,6.28
2022-10-02T05:18:07.094Z,6.70
2022-10-02T05:21:13.206Z,3.90
2022-10-02T05:24:24.093Z,6.38
2022-10-02T05:27:18.533Z,5.10
2022-10-02T05:30:33.058Z,3.20
2022-10-02T05:33:36.684Z,8.15
2022-10-02T05:37:00.054Z,4.10
2022-10-02T05:40:17.086Z,6.30
2022-10-02T05:43:09.199Z,5.15
2022-10-02T05:46:01.078Z,7.95
2022-10-02T05:49:13.179Z,8.05
2022-10-02T05:52:12.071Z,6.70
2022-10-02T05:55:19.142Z,5.65
2022-10-02T05:58:20.051Z,9.13
2022-10-02T06:01:19.211Z,4.82
2022-10-02T06:04:29.233Z,5.25
2022-10-02T06:07:24.032Z,5.68
2022-10-02T06:10:13.144Z,7.65
2022-10-02T06:13:10.049Z,4.95
2022-10-02T06:16:12.221Z,5.40
2022-10-02T06:19:05.029Z,3.10
2022-10-02T06:22:00.115Z,4.30
2022-10-02T06:25:01.059Z,5.22
2022-10-02T06:28:14.135Z,7.65
2022-10-02T06:31:03.186Z,6.35
2022-10-02T06:33:50.021Z,3.95
2022-10-02T06:36:53.104Z,8.05
2022-10-02T06:39:40.017Z,5.78
2022-10-02T06:42:23.111Z,5.10
2022-10-02T06:45:28.032Z,3.67
2022-10-02T06:51:34.986Z,6.30
2022-10-02T06:54:41.095Z,4.90
2022-10-02T06:57:47.983Z,2.42
2022-10-02T07:00:29.798Z,3.45
2022-10-02T07:03:48.009Z,5.18
2022-10-02T07:06:58.968Z,5.18
2022-10-02T07:10:07.993Z,3.58
2022-10-02T07:13:18.953Z,3.50
2022-10-02T07:16:14.808Z,4.55
2022-10-02T07:19:26.951Z,5.22
2022-10-02T07:22:48.946Z,3.38
2022-10-02T07:26:13.918Z,6.07
2022-10-02T07:29:33.386Z,4.28
2022-10-02T07:32:45.970Z,8.38
2022-10-02T07:35:32.903Z,9.18
2022-10-02T07:39:05.931Z,18.73
2022-10-02T07:42:06.965Z,13.45
2022-10-02T07:45:13.958Z,12.18
2022-10-02T07:48:07.992Z,13.30
2022-10-02T07:51:33.915Z,10.55
2022-10-02T07:55:06.914Z,9.10
2022-10-02T07:58:08.104Z,6.80
2022-10-02T08:00:57.899Z,7.47
2022-10-02T08:04:19.893Z,8.65
2022-10-02T08:07:07.036Z,6.25
2022-10-02T08:09:57.895Z,5.05
2022-10-02T08:12:54.873Z,6.25
2022-10-02T08:15:44.894Z,7.10
2022-10-02T08:18:40.916Z,6.43
2022-10-02T08:21:24.697Z,9.32
2022-10-02T08:24:17.953Z,7.55
2022-10-02T08:27:13.629Z,12.82
2022-10-02T08:30:05.905Z,14.00
2022-10-02T08:32:54.901Z,10.38
2022-10-02T08:35:52.880Z,9.82
2022-10-02T08:38:54.891Z,11.23
2022-10-02T08:41:55.026Z,9.05
2022-10-02T08:45:15.869Z,4.75
2022-10-02T08:48:27.335Z,5.63
2022-10-02T08:51:19.855Z,6.63
2022-10-02T08:54:27.847Z,6.60
2022-10-02T08:57:29.408Z,15.13
2022-10-02T09:00:34.922Z,7.38
2022-10-02T09:03:33.497Z,3.00
2022-10-02T09:06:38.309Z,4.72
2022-10-02T09:09:53.861Z,2.75
2022-10-02T09:13:04.823Z,4.60
2022-10-02T09:16:13.883Z,6.25
2022-10-02T09:19:08.930Z,6.47
2022-10-02T09:22:05.849Z,6.05
2022-10-02T09:25:04.917Z,4.55
2022-10-02T09:28:10.907Z,4.05
2022-10-02T09:30:57.786Z,6.57
2022-10-02T09:34:06.215Z,3.83
2022-10-02T09:37:34.794Z,4.18
2022-10-02T09:40:33.799Z,6.45
2022-10-02T09:43:39.830Z,2.63
2022-10-02T09:47:11.818Z,9.50
2022-10-02T09:50:14.787Z,4.15
2022-10-02T09:53:45.793Z,3.45
2022-10-02T09:56:54.793Z,4.22
2022-10-02T10:00:00.125Z,7.15
2022-10-02T10:03:29.766Z,10.85
2022-10-02T10:06:22.780Z,4.68
2022-10-02T10:09:14.919Z,4.32
2022-10-02T10:12:30.803Z,4.05
2022-10-02T10:15:35.728Z,5.55
2022-10-02T10:18:34.770Z,15.07
2022-10-02T10:21:30.170Z,20.25
2022-10-02T10:24:36.812Z,52.05
2022-10-02T10:27:47.280Z,24.58
2022-10-02T10:30:33.748Z,17.08
2022-10-02T10:33:35.986Z,21.05
2022-10-02T10:36:46.892Z,16.65
2022-10-02T10:39:49.774Z,12.73
2022-10-02T10:43:11.638Z,5.57
2022-10-02T10:46:25.879Z,2.17
2022-10-02T10:49:50.787Z,4.82
2022-10-02T10:53:22.781Z,5.72
2022-10-02T10:56:25.694Z,5.57
2022-10-02T10:59:49.793Z,3.25
2022-10-02T11:03:01.894Z,5.13
2022-10-02T11:06:25.751Z,7.50
2022-10-02T11:09:34.735Z,11.85
2022-10-02T11:12:39.720Z,4.70
2022-10-02T11:15:29.731Z,6.00
2022-10-02T11:18:51.828Z,3.80
2022-10-02T11:21:59.695Z,4.90
2022-10-02T11:24:55.426Z,5.53
2022-10-02T11:27:56.739Z,2.13
2022-10-02T11:30:42.782Z,2.60
2022-10-02T11:33:58.680Z,4.30
2022-10-02T11:36:56.802Z,9.77
2022-10-02T11:40:04.672Z,12.23
2022-10-02T11:43:13.784Z,8.45
2022-10-02T11:46:31.679Z,5.13
2022-10-02T11:49:48.653Z,3.65
2022-10-02T11:52:48.542Z,4.35
2022-10-02T11:56:04.666Z,4.90
2022-10-02T11:59:24.634Z,3.50
2022-10-02T12:02:22.958Z,2.85
2022-10-02T12:05:34.663Z,4.45
2022-10-02T12:08:34.324Z,3.47
2022-10-02T12:11:42.642Z,3.78
2022-10-02T12:14:25.772Z,3.25
2022-10-02T12:17:24.656Z,4.95
2022-10-02T12:20:23.375Z,3.65
2022-10-02T12:23:39.660Z,2.25
2022-10-02T12:26:59.795Z,2.70
2022-10-02T12:29:57.635Z,1.77
2022-10-02T12:33:19.632Z,1.73
2022-10-02T12:36:11.748Z,14.05
2022-10-02T12:39:25.627Z,2.40
2022-10-02T12:42:33.725Z,2.58
2022-10-02T12:45:39.652Z,5.75
2022-10-02T12:48:57.613Z,3.42
2022-10-02T12:51:56.442Z,3.28
2022-10-02T12:54:49.637Z,4.10
2022-10-02T12:57:52.921Z,2.72
2022-10-02T13:01:03.631Z,6.05
2022-10-02T13:04:38.086Z,5.93
2022-10-02T13:08:02.598Z,4.70
2022-10-02T13:10:54.617Z,3.53
2022-10-02T13:14:17.623Z,2.78
2022-10-02T13:17:12.725Z,3.38
2022-10-02T13:20:32.562Z,10.38
2022-10-02T13:23:32.527Z,1.63
2022-10-02T13:26:37.581Z,5.68
2022-10-02T13:30:21.569Z,1.65
2022-10-02T13:33:35.038Z,2.28
2022-10-02T13:36:43.886Z,2.80
2022-10-02T13:39:23.687Z,2.90
2022-10-02T13:42:16.602Z,2.92
2022-10-02T13:45:09.709Z,3.88
2022-10-02T13:48:12.559Z,1.95
2022-10-02T13:51:12.552Z,6.85
2022-10-02T13:54:11.970Z,3.03
2022-10-02T13:57:10.543Z,2.55
2022-10-02T14:00:21.521Z,2.20
2022-10-02T14:03:29.596Z,2.38
2022-10-02T14:06:23.880Z,2.33
2022-10-02T14:09:16.545Z,5.93
2022-10-02T14:12:34.544Z,1.75
2022-10-02T14:15:59.619Z,4.80
2022-10-02T14:18:59.371Z,2.33
2022-10-02T14:22:20.543Z,1.92
2022-10-02T14:25:33.503Z,5.40
2022-10-02T14:28:36.510Z,4.32
2022-10-02T14:31:26.551Z,0.93
2022-10-02T14:34:24.636Z,4.07
2022-10-02T14:37:44.498Z,5.43
2022-10-02T14:40:26.621Z,2.85
2022-10-02T14:43:28.486Z,1.45
2022-10-02T14:46:36.470Z,2.33
2022-10-02T14:49:43.490Z,3.03
2022-10-02T14:52:42.597Z,2.60
2022-10-02T14:56:00.472Z,2.30
2022-10-02T14:59:06.492Z,3.72
2022-10-02T15:02:16.460Z,2.30
2022-10-02T15:05:06.483Z,3.45
2022-10-02T15:07:53.496Z,2.70
2022-10-02T15:27:54.812Z,8.73
2022-10-02T15:30:51.799Z,5.28
2022-10-02T15:33:48.800Z,1.55
2022-10-02T15:36:49.374Z,3.35
2022-10-02T15:39:41.813Z,2.60
2022-10-02T15:42:30.845Z,3.03
2022-10-02T15:45:45.804Z,3.88
2022-10-02T15:48:57.733Z,2.55
2022-10-02T15:51:59.771Z,3.75
2022-10-02T15:55:06.877Z,4.30
2022-10-02T15:58:08.782Z,3.15
2022-10-02T16:01:35.527Z,3.00
2022-10-02T16:04:33.250Z,5.70
2022-10-02T16:07:36.115Z,2.72
2022-10-02T16:10:26.897Z,4.70
2022-10-02T16:13:16.717Z,2.20
2022-10-02T16:16:28.775Z,3.33
2022-10-02T16:19:14.841Z,1.02
2022-10-02T16:22:22.756Z,1.80
2022-10-02T16:25:06.847Z,6.22
2022-10-02T16:28:11.773Z,8.55
2022-10-02T16:30:58.763Z,3.97
2022-10-02T16:33:46.878Z,4.03
2022-10-02T16:36:40.728Z,5.28
2022-10-02T16:39:33.778Z,1.88
2022-10-02T16:42:51.738Z,2.00
2022-10-02T16:46:10.764Z,4.28
2022-10-02T16:49:03.046Z,1.83
2022-10-02T16:52:02.784Z,2.80
2022-10-02T16:55:19.058Z,5.43
2022-10-02T16:58:31.745Z,2.90
2022-10-02T17:02:16.301Z,2.35
2022-10-02T17:04:56.015Z,3.90
2022-10-02T17:08:20.713Z,3.30
2022-10-02T17:11:34.669Z,3.45
2022-10-02T17:14:21.113Z,2.28
2022-10-02T17:17:24.648Z,3.05
2022-10-02T17:20:14.639Z,3.03
2022-10-02T17:23:43.666Z,3.05
2022-10-02T17:26:49.652Z,5.00
2022-10-02T17:29:39.634Z,12.18
2022-10-02T17:32:46.835Z,4.88
2022-10-02T17:35:54.625Z,6.57
2022-10-02T17:38:41.648Z,3.42
2022-10-02T17:41:57.663Z,2.25
2022-10-02T17:44:47.610Z,3.78
2022-10-02T17:47:37.672Z,1.90
2022-10-02T17:50:30.604Z,5.28
2022-10-02T17:53:47.661Z,8.23
2022-10-02T17:56:37.384Z,2.42
2022-10-02T18:00:04.146Z,4.10
2022-10-02T18:03:12.617Z,2.95
2022-10-02T18:06:08.597Z,3.35
2022-10-02T18:09:07.898Z,5.38
2022-10-02T18:12:21.626Z,2.50
2022-10-02T18:15:20.759Z,5.15
2022-10-02T18:18:19.577Z,6.95
2022-10-02T18:21:08.027Z,4.68
2022-10-02T18:24:12.598Z,3.10
2022-10-02T18:30:17.607Z,3.80
2022-10-02T18:33:31.613Z,2.97
2022-10-02T18:36:25.161Z,1.35
2022-10-02T18:39:12.620Z,3.58
2022-10-02T18:42:27.982Z,2.75
2022-10-02T18:45:13.557Z,2.92
2022-10-02T18:48:20.006Z,3.28
2022-10-02T18:51:18.531Z,3.40
2022-10-02T18:54:11.542Z,2.22
2022-10-02T18:57:16.844Z,4.65
2022-10-02T19:03:23.641Z,2.50
2022-10-02T19:06:38.555Z,1.90
2022-10-02T19:09:54.565Z,5.28
2022-10-02T19:12:35.079Z,3.63
2022-10-02T19:15:36.646Z,5.22
2022-10-02T19:18:31.550Z,5.43
2022-10-02T19:21:28.563Z,4.15
2022-10-02T19:24:21.550Z,4.72
2022-10-02T19:27:15.148Z,3.88
2022-10-02T19:30:02.529Z,2.95
2022-10-02T19:32:49.494Z,4.38
2022-10-02T19:35:36.643Z,3.58
2022-10-02T19:38:35.518Z,5.88
2022-10-02T19:41:19.730Z,2.90
2022-10-02T19:44:14.553Z,3.45
2022-10-02T19:46:57.629Z,3.13
2022-10-02T19:49:47.512Z,3.63
2022-10-02T19:53:06.971Z,4.82
2022-10-02T19:55:58.473Z,5.85
2022-10-02T19:58:46.576Z,5.03
2022-10-02T20:01:37.784Z,7.43
2022-10-02T20:04:26.628Z,4.53
2022-10-02T20:07:19.484Z,5.43
2022-10-02T20:10:07.589Z,5.28
2022-10-02T20:13:37.069Z,4.35
2022-10-02T20:16:49.499Z,6.28
2022-10-02T20:19:45.483Z,4.25
2022-10-02T20:23:12.482Z,2.75
2022-10-02T20:26:14.489Z,2.13
2022-10-02T20:29:06.456Z,3.25
2022-10-02T20:31:54.684Z,3.53
2022-10-02T20:34:56.464Z,1.77
2022-10-02T20:37:47.467Z,2.55
2022-10-02T20:40:36.620Z,5.95
2022-10-02T20:43:41.494Z,5.95
2022-10-02T20:46:35.810Z,1.65
2022-10-02T20:49:59.446Z,2.72
2022-10-02T20:53:11.703Z,2.85
2022-10-02T20:56:07.466Z,3.10
2022-10-02T20:58:56.762Z,3.92
2022-10-02T21:01:54.445Z,2.10
2022-10-02T21:05:18.557Z,2.20
2022-10-02T21:08:35.456Z,4.03
2022-10-02T21:12:10.405Z,3.78
2022-10-02T21:15:09.400Z,2.63
2022-10-02T21:17:56.377Z,2.58
2022-10-02T21:20:52.359Z,2.08
2022-10-02T21:23:51.401Z,2.13
2022-10-02T21:27:04.389Z,2.72
2022-10-02T21:30:10.887Z,3.67
2022-10-02T21:33:16.421Z,2.40
2022-10-02T21:36:19.492Z,3.85
2022-10-02T21:39:13.366Z,3.80
2022-10-02T21:42:39.561Z,2.13
2022-10-02T21:45:49.405Z,1.33
2022-10-02T21:49:01.430Z,2.20
2022-10-02T21:51:41.860Z,2.90
2022-10-02T21:55:05.387Z,2.60
2022-10-02T21:57:48.777Z,7.72
2022-10-02T22:00:41.398Z,3.65
2022-10-02T22:03:37.424Z,2.92
2022-10-02T22:06:37.419Z,1.92
2022-10-02T22:09:44.835Z,4.90
2022-10-02T22:12:57.574Z,3.95
2022-10-02T22:15:53.053Z,3.53
2022-10-02T22:18:48.368Z,6.05
2022-10-02T22:21:47.279Z,5.25
2022-10-02T22:25:17.302Z,5.15
2022-10-02T22:28:29.526Z,2.65
2022-10-02T22:31:18.399Z,3.85
2022-10-02T22:34:24.355Z,3.92
2022-10-02T22:37:31.319Z,3.00
2022-10-02T22:40:27.434Z,6.60
2022-10-02T22:43:12.305Z,3.63
2022-10-02T22:46:11.372Z,2.70
2022-10-02T22:49:06.298Z,3.03
2022-10-02T22:52:00.406Z,4.55
2022-10-02T22:54:46.484Z,3.03
2022-10-02T22:58:09.255Z,5.28
2022-10-02T23:01:02.427Z,12.55
2022-10-02T23:04:01.305Z,3.40
2022-10-02T23:07:24.304Z,4.18
2022-10-02T23:10:17.113Z,2.92
2022-10-02T23:13:27.283Z,6.15
2022-10-02T23:16:15.427Z,3.60
2022-10-02T23:19:04.283Z,3.08
2022-10-02T23:22:00.130Z,4.43
2022-10-02T23:25:02.245Z,3.50
2022-10-02T23:28:32.351Z,2.28
2022-10-02T23:31:22.166Z,2.47
2022-10-02T23:34:37.227Z,4.15
2022-10-02T23:37:51.207Z,3.60
2022-10-02T23:41:16.267Z,4.07
2022-10-02T23:44:33.356Z,1.83
2022-10-02T23:47:55.230Z,2.85
2022-10-02T23:50:46.752Z,3.28
2022-10-02T23:54:05.245Z,2.78
2022-10-02T23:57:01.124Z,4.20
